sensor_id;sensor_type;location;lat;lon;timestamp;pressure;altitude;pressure_sealevel;temperature;humidity
44872;BME280;30602;51.060;17.226;2023-04-09T00:01:17;102362.86;;;7.23;84.03
44872;BME280;30602;51.060;17.226;2023-04-09T00:04:35;102360.75;;;7.17;84.41
44872;BME280;30602;51.060;17.226;2023-04-09T00:08:04;102360.98;;;7.11;84.88
44872;BME280;30602;51.060;17.226;2023-04-09T00:12:07;102356.45;;;7.04;85.19
44872;BME280;30602;51.060;17.226;2023-04-09T00:16:12;102353.36;;;7.02;85.85
44872;BME280;30602;51.060;17.226;2023-04-09T00:19:36;102352.27;;;7.01;85.69
44872;BME280;30602;51.060;17.226;2023-04-09T00:23:31;102350.05;;;7.02;85.18
44872;BME280;30602;51.060;17.226;2023-04-09T00:27:28;102352.34;;;6.98;85.55
44872;BME280;30602;51.060;17.226;2023-04-09T00:31:02;102357.12;;;6.97;85.81
44872;BME280;30602;51.060;17.226;2023-04-09T00:34:27;102359.83;;;6.98;85.37
44872;BME280;30602;51.060;17.226;2023-04-09T00:37:53;102363.21;;;6.96;85.43
44872;BME280;30602;51.060;17.226;2023-04-09T00:41:30;102361.83;;;6.90;85.93
44872;BME280;30602;51.060;17.226;2023-04-09T00:44:51;102362.78;;;6.87;86.17
44872;BME280;30602;51.060;17.226;2023-04-09T00:48:16;102363.71;;;6.83;86.21
44872;BME280;30602;51.060;17.226;2023-04-09T00:51:43;102365.22;;;6.78;86.68
44872;BME280;30602;51.060;17.226;2023-04-09T00:55:16;102360.98;;;6.72;86.84
44872;BME280;30602;51.060;17.226;2023-04-09T00:59:14;102374.12;;;6.72;87.44
44872;BME280;30602;51.060;17.226;2023-04-09T01:03:08;102371.44;;;6.69;87.16
44872;BME280;30602;51.060;17.226;2023-04-09T01:06:44;102375.98;;;6.70;87.45
44872;BME280;30602;51.060;17.226;2023-04-09T01:14:31;102375.70;;;6.61;87.77
44872;BME280;30602;51.060;17.226;2023-04-09T01:21:59;102383.06;;;6.76;86.94
44872;BME280;30602;51.060;17.226;2023-04-09T01:29:25;102379.11;;;6.68;86.92
44872;BME280;30602;51.060;17.226;2023-04-09T01:33:08;102381.59;;;6.69;86.97
44872;BME280;30602;51.060;17.226;2023-04-09T01:40:20;102382.91;;;6.70;86.51
44872;BME280;30602;51.060;17.226;2023-04-09T01:44:39;102387.59;;;6.67;86.96
44872;BME280;30602;51.060;17.226;2023-04-09T01:48:29;102388.07;;;6.58;87.57
44872;BME280;30602;51.060;17.226;2023-04-09T01:52:15;102389.84;;;6.58;87.42
44872;BME280;30602;51.060;17.226;2023-04-09T01:56:45;102393.06;;;6.55;87.53
44872;BME280;30602;51.060;17.226;2023-04-09T02:00:43;102399.04;;;6.52;87.77
44872;BME280;30602;51.060;17.226;2023-04-09T02:08:21;102401.97;;;6.51;88.04
44872;BME280;30602;51.060;17.226;2023-04-09T02:11:46;102404.98;;;6.51;87.58
44872;BME280;30602;51.060;17.226;2023-04-09T02:15:27;102403.36;;;6.46;87.95
44872;BME280;30602;51.060;17.226;2023-04-09T02:19:42;102405.29;;;6.42;87.85
44872;BME280;30602;51.060;17.226;2023-04-09T02:23:19;102402.28;;;6.42;87.82
44872;BME280;30602;51.060;17.226;2023-04-09T02:27:30;102405.05;;;6.38;88.29
44872;BME280;30602;51.060;17.226;2023-04-09T02:31:42;102400.44;;;6.40;88.05
44872;BME280;30602;51.060;17.226;2023-04-09T02:35:28;102404.02;;;6.36;88.37
44872;BME280;30602;51.060;17.226;2023-04-09T02:38:53;102406.71;;;6.33;88.71
44872;BME280;30602;51.060;17.226;2023-04-09T02:42:33;102380.70;;;6.09;89.24
44872;BME280;30602;51.060;17.226;2023-04-09T02:46:02;102406.01;;;6.26;89.28
44872;BME280;30602;51.060;17.226;2023-04-09T02:50:23;102401.65;;;6.22;89.76
44872;BME280;30602;51.060;17.226;2023-04-09T02:54:10;102405.47;;;6.26;90.09
44872;BME280;30602;51.060;17.226;2023-04-09T02:57:51;102402.52;;;6.34;89.58
44872;BME280;30602;51.060;17.226;2023-04-09T03:05:48;102404.31;;;6.33;89.27
44872;BME280;30602;51.060;17.226;2023-04-09T03:09:20;102381.82;;;6.13;89.46
44872;BME280;30602;51.060;17.226;2023-04-09T03:12:56;102402.52;;;6.26;90.05
44872;BME280;30602;51.060;17.226;2023-04-09T03:17:50;102400.41;;;6.20;90.66
44872;BME280;30602;51.060;17.226;2023-04-09T03:21:37;102398.47;;;6.21;90.28
44872;BME280;30602;51.060;17.226;2023-04-09T03:25:03;102399.87;;;6.21;90.29
44872;BME280;30602;51.060;17.226;2023-04-09T03:29:23;102383.49;;;6.06;90.74
44872;BME280;30602;51.060;17.226;2023-04-09T03:32:46;102397.30;;;6.15;90.84
44872;BME280;30602;51.060;17.226;2023-04-09T03:37:31;102400.07;;;6.06;91.49
44872;BME280;30602;51.060;17.226;2023-04-09T03:41:05;102395.48;;;6.12;91.82
44872;BME280;30602;51.060;17.226;2023-04-09T03:44:24;102396.77;;;6.15;91.94
44872;BME280;30602;51.060;17.226;2023-04-09T03:48:29;102402.63;;;6.11;92.15
44872;BME280;30602;51.060;17.226;2023-04-09T03:52:21;102405.99;;;6.09;92.61
44872;BME280;30602;51.060;17.226;2023-04-09T03:56:23;102406.96;;;6.05;93.48
44872;BME280;30602;51.060;17.226;2023-04-09T03:59:46;102415.20;;;6.03;93.36
44872;BME280;30602;51.060;17.226;2023-04-09T04:03:28;102414.37;;;5.98;93.35
44872;BME280;30602;51.060;17.226;2023-04-09T04:07:09;102416.19;;;5.96;94.13
44872;BME280;30602;51.060;17.226;2023-04-09T04:10:37;102417.88;;;5.95;94.50
44872;BME280;30602;51.060;17.226;2023-04-09T04:14:37;102406.82;;;5.84;94.61
44872;BME280;30602;51.060;17.226;2023-04-09T04:18:14;102422.56;;;5.95;95.12
44872;BME280;30602;51.060;17.226;2023-04-09T04:21:47;102430.02;;;5.93;95.43
44872;BME280;30602;51.060;17.226;2023-04-09T04:29:40;102401.30;;;5.81;96.09
44872;BME280;30602;51.060;17.226;2023-04-09T04:38:15;102426.95;;;6.03;96.72
44872;BME280;30602;51.060;17.226;2023-04-09T04:41:39;102426.44;;;5.98;96.89
44872;BME280;30602;51.060;17.226;2023-04-09T04:46:29;102421.66;;;5.92;97.78
44872;BME280;30602;51.060;17.226;2023-04-09T04:49:50;102432.46;;;5.94;98.19
44872;BME280;30602;51.060;17.226;2023-04-09T04:53:37;102421.55;;;5.81;98.61
44872;BME280;30602;51.060;17.226;2023-04-09T04:57:38;102428.76;;;5.83;99.02
44872;BME280;30602;51.060;17.226;2023-04-09T05:01:03;102415.66;;;5.75;99.21
44872;BME280;30602;51.060;17.226;2023-04-09T05:08:36;102428.20;;;5.84;99.98
44872;BME280;30602;51.060;17.226;2023-04-09T05:12:25;102430.49;;;5.85;100.00
44872;BME280;30602;51.060;17.226;2023-04-09T05:16:18;102424.70;;;5.79;99.99
44872;BME280;30602;51.060;17.226;2023-04-09T05:20:42;102437.20;;;5.98;100.00
44872;BME280;30602;51.060;17.226;2023-04-09T05:24:20;102440.53;;;5.99;99.82
44872;BME280;30602;51.060;17.226;2023-04-09T05:28:19;102442.32;;;6.05;99.99
44872;BME280;30602;51.060;17.226;2023-04-09T05:31:58;102443.31;;;6.02;100.00
44872;BME280;30602;51.060;17.226;2023-04-09T05:35:42;102441.42;;;5.96;100.00
44872;BME280;30602;51.060;17.226;2023-04-09T05:40:02;102442.64;;;5.96;100.00
44872;BME280;30602;51.060;17.226;2023-04-09T05:43:32;102445.58;;;5.97;100.00
44872;BME280;30602;51.060;17.226;2023-04-09T05:46:57;102448.98;;;5.96;100.00
44872;BME280;30602;51.060;17.226;2023-04-09T05:51:10;102438.72;;;5.88;100.00
44872;BME280;30602;51.060;17.226;2023-04-09T05:54:42;102443.47;;;5.96;100.00
44872;BME280;30602;51.060;17.226;2023-04-09T05:58:29;102443.79;;;5.94;100.00
44872;BME280;30602;51.060;17.226;2023-04-09T06:02:13;102443.04;;;5.88;100.00
44872;BME280;30602;51.060;17.226;2023-04-09T06:05:59;102453.87;;;6.01;100.00
44872;BME280;30602;51.060;17.226;2023-04-09T06:10:27;102450.85;;;6.15;100.00
44872;BME280;30602;51.060;17.226;2023-04-09T06:14:04;102445.10;;;6.15;100.00
44872;BME280;30602;51.060;17.226;2023-04-09T06:18:35;102434.66;;;6.11;100.00
44872;BME280;30602;51.060;17.226;2023-04-09T06:23:02;102438.83;;;6.14;100.00
44872;BME280;30602;51.060;17.226;2023-04-09T06:26:48;102447.78;;;6.20;100.00
44872;BME280;30602;51.060;17.226;2023-04-09T06:30:36;102440.21;;;6.18;100.00
44872;BME280;30602;51.060;17.226;2023-04-09T06:34:14;102441.36;;;6.23;100.00
44872;BME280;30602;51.060;17.226;2023-04-09T06:37:57;102445.84;;;6.19;100.00
44872;BME280;30602;51.060;17.226;2023-04-09T06:41:25;102443.48;;;6.20;100.00
44872;BME280;30602;51.060;17.226;2023-04-09T06:45:16;102443.30;;;6.16;100.00
44872;BME280;30602;51.060;17.226;2023-04-09T06:48:44;102444.18;;;6.13;100.00
44872;BME280;30602;51.060;17.226;2023-04-09T06:52:55;102441.09;;;6.14;100.00
44872;BME280;30602;51.060;17.226;2023-04-09T06:56:21;102449.37;;;6.18;100.00
44872;BME280;30602;51.060;17.226;2023-04-09T07:00:17;102448.92;;;6.18;100.00
44872;BME280;30602;51.060;17.226;2023-04-09T07:04:41;102464.02;;;6.27;100.00
44872;BME280;30602;51.060;17.226;2023-04-09T07:12:48;102457.57;;;6.25;100.00
44872;BME280;30602;51.060;17.226;2023-04-09T07:17:01;102468.80;;;6.30;100.00
44872;BME280;30602;51.060;17.226;2023-04-09T07:20:57;102471.38;;;6.26;100.00
44872;BME280;30602;51.060;17.226;2023-04-09T07:25:08;102474.56;;;6.23;100.00
44872;BME280;30602;51.060;17.226;2023-04-09T07:28:52;102470.80;;;6.20;100.00
44872;BME280;30602;51.060;17.226;2023-04-09T07:32:51;102474.18;;;6.24;100.00
44872;BME280;30602;51.060;17.226;2023-04-09T07:36:51;102470.22;;;6.17;100.00
44872;BME280;30602;51.060;17.226;2023-04-09T07:40:52;102466.70;;;6.14;100.00
44872;BME280;30602;51.060;17.226;2023-04-09T07:45:12;102480.42;;;6.36;100.00
44872;BME280;30602;51.060;17.226;2023-04-09T07:48:56;102464.89;;;6.25;100.00
44872;BME280;30602;51.060;17.226;2023-04-09T07:52:22;102499.20;;;6.32;100.00
44872;BME280;30602;51.060;17.226;2023-04-09T07:56:04;102497.70;;;6.31;100.00
44872;BME280;30602;51.060;17.226;2023-04-09T07:59:29;102498.16;;;6.26;100.00
44872;BME280;30602;51.060;17.226;2023-04-09T08:03:18;102497.20;;;6.28;100.00
44872;BME280;30602;51.060;17.226;2023-04-09T08:06:54;102496.79;;;6.23;100.00
44872;BME280;30602;51.060;17.226;2023-04-09T08:10:27;102489.75;;;6.26;100.00
44872;BME280;30602;51.060;17.226;2023-04-09T08:14:16;102470.77;;;6.13;100.00
44872;BME280;30602;51.060;17.226;2023-04-09T08:17:47;102480.59;;;6.12;100.00
44872;BME280;30602;51.060;17.226;2023-04-09T08:21:58;102484.53;;;6.24;100.00
44872;BME280;30602;51.060;17.226;2023-04-09T08:26:27;102479.93;;;6.39;100.00
44872;BME280;30602;51.060;17.226;2023-04-09T08:30:32;102480.03;;;6.42;100.00
44872;BME280;30602;51.060;17.226;2023-04-09T08:34:27;102480.31;;;6.45;100.00
44872;BME280;30602;51.060;17.226;2023-04-09T08:38:22;102485.73;;;6.55;100.00
44872;BME280;30602;51.060;17.226;2023-04-09T08:42:43;102496.70;;;6.49;100.00
44872;BME280;30602;51.060;17.226;2023-04-09T08:46:35;102498.81;;;6.49;100.00
44872;BME280;30602;51.060;17.226;2023-04-09T08:50:51;102498.89;;;6.49;100.00
44872;BME280;30602;51.060;17.226;2023-04-09T08:54:34;102500.04;;;6.52;100.00
44872;BME280;30602;51.060;17.226;2023-04-09T08:58:47;102493.34;;;6.45;100.00
44872;BME280;30602;51.060;17.226;2023-04-09T09:03:11;102495.69;;;6.47;100.00
44872;BME280;30602;51.060;17.226;2023-04-09T09:07:20;102497.27;;;6.53;100.00
44872;BME280;30602;51.060;17.226;2023-04-09T09:11:06;102495.95;;;6.49;100.00
44872;BME280;30602;51.060;17.226;2023-04-09T09:15:24;102483.74;;;6.34;100.00
44872;BME280;30602;51.060;17.226;2023-04-09T09:19:29;102503.08;;;6.49;100.00
44872;BME280;30602;51.060;17.226;2023-04-09T09:23:50;102502.77;;;6.52;100.00
44872;BME280;30602;51.060;17.226;2023-04-09T09:31:56;102498.51;;;6.59;100.00
44872;BME280;30602;51.060;17.226;2023-04-09T09:35:50;102499.20;;;6.54;100.00
44872;BME280;30602;51.060;17.226;2023-04-09T09:39:43;102503.93;;;6.59;100.00
44872;BME280;30602;51.060;17.226;2023-04-09T09:43:41;102502.54;;;6.55;100.00
44872;BME280;30602;51.060;17.226;2023-04-09T09:48:11;102505.31;;;6.58;100.00
44872;BME280;30602;51.060;17.226;2023-04-09T09:51:59;102487.46;;;6.55;100.00
44872;BME280;30602;51.060;17.226;2023-04-09T09:55:43;102503.48;;;6.61;100.00
44872;BME280;30602;51.060;17.226;2023-04-09T10:00:11;102482.64;;;6.56;100.00
44872;BME280;30602;51.060;17.226;2023-04-09T10:04:08;102490.19;;;6.68;100.00
44872;BME280;30602;51.060;17.226;2023-04-09T10:08:17;102488.71;;;6.73;100.00
44872;BME280;30602;51.060;17.226;2023-04-09T10:12:00;102492.84;;;6.69;100.00
44872;BME280;30602;51.060;17.226;2023-04-09T10:15:48;102494.58;;;6.74;100.00
44872;BME280;30602;51.060;17.226;2023-04-09T10:20:27;102494.55;;;6.69;100.00
44872;BME280;30602;51.060;17.226;2023-04-09T10:24:58;102497.02;;;6.75;100.00
44872;BME280;30602;51.060;17.226;2023-04-09T10:29:43;102498.12;;;6.84;100.00
44872;BME280;30602;51.060;17.226;2023-04-09T10:33:16;102492.34;;;6.81;100.00
44872;BME280;30602;51.060;17.226;2023-04-09T10:36:52;102492.49;;;6.90;100.00
44872;BME280;30602;51.060;17.226;2023-04-09T10:40:52;102490.11;;;6.88;100.00
44872;BME280;30602;51.060;17.226;2023-04-09T10:45:10;102492.14;;;6.88;100.00
44872;BME280;30602;51.060;17.226;2023-04-09T10:53:23;102491.53;;;6.95;100.00
44872;BME280;30602;51.060;17.226;2023-04-09T10:57:14;102482.83;;;7.17;100.00
44872;BME280;30602;51.060;17.226;2023-04-09T11:01:22;102481.46;;;7.38;100.00
44872;BME280;30602;51.060;17.226;2023-04-09T11:09:40;102486.77;;;7.28;100.00
44872;BME280;30602;51.060;17.226;2023-04-09T11:13:34;102487.35;;;7.33;100.00
44872;BME280;30602;51.060;17.226;2023-04-09T11:18:33;102478.08;;;7.29;100.00
44872;BME280;30602;51.060;17.226;2023-04-09T11:22:58;102474.18;;;7.32;100.00
44872;BME280;30602;51.060;17.226;2023-04-09T11:26:55;102473.14;;;7.30;100.00
44872;BME280;30602;51.060;17.226;2023-04-09T11:30:44;102468.47;;;7.21;100.00
44872;BME280;30602;51.060;17.226;2023-04-09T11:34:15;102470.16;;;7.23;100.00
44872;BME280;30602;51.060;17.226;2023-04-09T11:38:13;102466.39;;;7.11;100.00
44872;BME280;30602;51.060;17.226;2023-04-09T11:41:43;102466.82;;;7.20;100.00
44872;BME280;30602;51.060;17.226;2023-04-09T11:45:49;102469.30;;;7.31;100.00
44872;BME280;30602;51.060;17.226;2023-04-09T11:50:02;102474.34;;;7.32;100.00
44872;BME280;30602;51.060;17.226;2023-04-09T11:54:34;102469.34;;;7.29;100.00
44872;BME280;30602;51.060;17.226;2023-04-09T11:58:25;102469.16;;;7.35;100.00
44872;BME280;30602;51.060;17.226;2023-04-09T12:01:51;102473.51;;;7.36;100.00
44872;BME280;30602;51.060;17.226;2023-04-09T12:05:34;102476.28;;;7.44;100.00
44872;BME280;30602;51.060;17.226;2023-04-09T12:13:34;102488.63;;;7.38;100.00
44872;BME280;30602;51.060;17.226;2023-04-09T12:17:14;102488.21;;;7.45;100.00
44872;BME280;30602;51.060;17.226;2023-04-09T12:20:48;102491.13;;;7.48;100.00
44872;BME280;30602;51.060;17.226;2023-04-09T12:25:07;102488.04;;;7.44;100.00
44872;BME280;30602;51.060;17.226;2023-04-09T12:32:52;102488.69;;;7.55;100.00
44872;BME280;30602;51.060;17.226;2023-04-09T12:40:47;102485.30;;;7.58;100.00
44872;BME280;30602;51.060;17.226;2023-04-09T12:44:55;102485.90;;;7.54;99.95
44872;BME280;30602;51.060;17.226;2023-04-09T12:52:40;102482.60;;;7.51;100.00
44872;BME280;30602;51.060;17.226;2023-04-09T12:56:09;102484.41;;;7.55;100.00
44872;BME280;30602;51.060;17.226;2023-04-09T13:00:13;102483.51;;;7.63;100.00
44872;BME280;30602;51.060;17.226;2023-04-09T13:03:38;102484.61;;;7.52;100.00
44872;BME280;30602;51.060;17.226;2023-04-09T13:07:55;102482.47;;;7.54;100.00
44872;BME280;30602;51.060;17.226;2023-04-09T13:11:59;102482.31;;;7.58;100.00
44872;BME280;30602;51.060;17.226;2023-04-09T13:16:29;102481.81;;;7.66;100.00
44872;BME280;30602;51.060;17.226;2023-04-09T13:20:46;102482.83;;;7.70;100.00
44872;BME280;30602;51.060;17.226;2023-04-09T13:24:41;102479.36;;;7.73;100.00
44872;BME280;30602;51.060;17.226;2023-04-09T13:28:52;102479.64;;;7.68;100.00
44872;BME280;30602;51.060;17.226;2023-04-09T13:32:15;102478.30;;;7.74;100.00
44872;BME280;30602;51.060;17.226;2023-04-09T13:36:20;102479.34;;;7.74;100.00
44872;BME280;30602;51.060;17.226;2023-04-09T13:40:16;102478.05;;;7.71;100.00
44872;BME280;30602;51.060;17.226;2023-04-09T13:43:58;102473.51;;;7.68;100.00
44872;BME280;30602;51.060;17.226;2023-04-09T13:48:11;102476.65;;;7.62;100.00
44872;BME280;30602;51.060;17.226;2023-04-09T13:52:11;102476.60;;;7.71;100.00
44872;BME280;30602;51.060;17.226;2023-04-09T13:55:50;102465.26;;;7.62;100.00
44872;BME280;30602;51.060;17.226;2023-04-09T13:59:24;102474.94;;;7.70;100.00
44872;BME280;30602;51.060;17.226;2023-04-09T14:02:52;102471.83;;;7.76;100.00
44872;BME280;30602;51.060;17.226;2023-04-09T14:06:32;102478.22;;;7.75;100.00
44872;BME280;30602;51.060;17.226;2023-04-09T14:09:58;102476.10;;;7.77;100.00
44872;BME280;30602;51.060;17.226;2023-04-09T14:14:24;102473.56;;;7.75;100.00
44872;BME280;30602;51.060;17.226;2023-04-09T14:18:19;102476.13;;;7.80;100.00
44872;BME280;30602;51.060;17.226;2023-04-09T14:22:20;102471.70;;;7.80;100.00
44872;BME280;30602;51.060;17.226;2023-04-09T14:26:46;102469.74;;;7.82;100.00
44872;BME280;30602;51.060;17.226;2023-04-09T14:30:26;102469.79;;;7.81;100.00
44872;BME280;30602;51.060;17.226;2023-04-09T14:33:51;102466.17;;;7.80;100.00
44872;BME280;30602;51.060;17.226;2023-04-09T14:37:59;102460.98;;;7.75;100.00
44872;BME280;30602;51.060;17.226;2023-04-09T14:41:25;102464.77;;;7.81;100.00
44872;BME280;30602;51.060;17.226;2023-04-09T14:45:33;102464.41;;;7.86;100.00
44872;BME280;30602;51.060;17.226;2023-04-09T14:49:34;102468.15;;;7.86;100.00
44872;BME280;30602;51.060;17.226;2023-04-09T14:53:18;102465.66;;;7.76;100.00
44872;BME280;30602;51.060;17.226;2023-04-09T14:56:45;102459.62;;;7.67;100.00
44872;BME280;30602;51.060;17.226;2023-04-09T15:00:41;102461.55;;;7.57;100.00
44872;BME280;30602;51.060;17.226;2023-04-09T15:04:12;102462.65;;;7.61;100.00
44872;BME280;30602;51.060;17.226;2023-04-09T15:08:31;102459.34;;;7.56;100.00
44872;BME280;30602;51.060;17.226;2023-04-09T15:11:58;102459.16;;;7.50;100.00
44872;BME280;30602;51.060;17.226;2023-04-09T15:19:26;102455.48;;;7.52;100.00
44872;BME280;30602;51.060;17.226;2023-04-09T15:23:20;102446.53;;;7.43;100.00
44872;BME280;30602;51.060;17.226;2023-04-09T15:27:22;102454.42;;;7.50;100.00
44872;BME280;30602;51.060;17.226;2023-04-09T15:30:49;102455.09;;;7.54;100.00
44872;BME280;30602;51.060;17.226;2023-04-09T15:34:29;102453.30;;;7.50;100.00
44872;BME280;30602;51.060;17.226;2023-04-09T15:38:28;102425.44;;;7.32;100.00
44872;BME280;30602;51.060;17.226;2023-04-09T15:42:39;102430.48;;;7.38;100.00
44872;BME280;30602;51.060;17.226;2023-04-09T15:46:09;102428.25;;;7.39;100.00
44872;BME280;30602;51.060;17.226;2023-04-09T15:50:06;102446.58;;;7.49;100.00
44872;BME280;30602;51.060;17.226;2023-04-09T15:53:43;102445.90;;;7.53;100.00
44872;BME280;30602;51.060;17.226;2023-04-09T15:57:41;102442.88;;;7.54;100.00
44872;BME280;30602;51.060;17.226;2023-04-09T16:01:21;102451.08;;;7.50;100.00
44872;BME280;30602;51.060;17.226;2023-04-09T16:04:42;102442.05;;;7.44;100.00
44872;BME280;30602;51.060;17.226;2023-04-09T16:08:29;102442.06;;;7.48;100.00
44872;BME280;30602;51.060;17.226;2023-04-09T16:11:48;102446.25;;;7.54;100.00
44872;BME280;30602;51.060;17.226;2023-04-09T16:15:34;102434.40;;;7.51;100.00
44872;BME280;30602;51.060;17.226;2023-04-09T16:19:24;102445.08;;;7.55;100.00
44872;BME280;30602;51.060;17.226;2023-04-09T16:23:09;102446.66;;;7.52;100.00
44872;BME280;30602;51.060;17.226;2023-04-09T16:26:33;102450.06;;;7.50;100.00
44872;BME280;30602;51.060;17.226;2023-04-09T16:30:12;102451.10;;;7.47;100.00
44872;BME280;30602;51.060;17.226;2023-04-09T16:34:04;102450.91;;;7.48;100.00
44872;BME280;30602;51.060;17.226;2023-04-09T16:37:31;102426.38;;;7.30;100.00
44872;BME280;30602;51.060;17.226;2023-04-09T16:41:18;102448.98;;;7.48;100.00
44872;BME280;30602;51.060;17.226;2023-04-09T16:45:15;102449.63;;;7.48;100.00
44872;BME280;30602;51.060;17.226;2023-04-09T16:48:53;102447.85;;;7.47;100.00
44872;BME280;30602;51.060;17.226;2023-04-09T16:53:07;102452.71;;;7.46;100.00
44872;BME280;30602;51.060;17.226;2023-04-09T16:57:49;102457.62;;;7.51;100.00
44872;BME280;30602;51.060;17.226;2023-04-09T17:01:32;102453.58;;;7.54;100.00
44872;BME280;30602;51.060;17.226;2023-04-09T17:05:17;102452.75;;;7.57;100.00
44872;BME280;30602;51.060;17.226;2023-04-09T17:08:46;102458.22;;;7.55;100.00
44872;BME280;30602;51.060;17.226;2023-04-09T17:12:46;102457.66;;;7.52;100.00
44872;BME280;30602;51.060;17.226;2023-04-09T17:16:20;102463.07;;;7.52;100.00
44872;BME280;30602;51.060;17.226;2023-04-09T17:20:43;102465.59;;;7.50;100.00
44872;BME280;30602;51.060;17.226;2023-04-09T17:25:01;102462.80;;;7.50;100.00
44872;BME280;30602;51.060;17.226;2023-04-09T17:28:58;102450.52;;;7.39;100.00
44872;BME280;30602;51.060;17.226;2023-04-09T17:33:42;102469.66;;;7.48;100.00
44872;BME280;30602;51.060;17.226;2023-04-09T17:38:01;102461.01;;;7.39;100.00
44872;BME280;30602;51.060;17.226;2023-04-09T17:41:24;102468.15;;;7.40;100.00
44872;BME280;30602;51.060;17.226;2023-04-09T17:45:23;102442.31;;;7.28;100.00
44872;BME280;30602;51.060;17.226;2023-04-09T17:48:49;102476.24;;;7.53;100.00
44872;BME280;30602;51.060;17.226;2023-04-09T17:52:31;102474.48;;;7.51;100.00
44872;BME280;30602;51.060;17.226;2023-04-09T17:56:33;102477.05;;;7.46;100.00
44872;BME280;30602;51.060;17.226;2023-04-09T18:00:28;102476.99;;;7.45;100.00
44872;BME280;30602;51.060;17.226;2023-04-09T18:04:50;102483.05;;;7.46;100.00
44872;BME280;30602;51.060;17.226;2023-04-09T18:09:01;102484.14;;;7.44;100.00
44872;BME280;30602;51.060;17.226;2023-04-09T18:13:27;102487.23;;;7.44;100.00
44872;BME280;30602;51.060;17.226;2023-04-09T18:21:22;102495.01;;;7.40;100.00
44872;BME280;30602;51.060;17.226;2023-04-09T18:25:18;102501.88;;;7.37;100.00
44872;BME280;30602;51.060;17.226;2023-04-09T18:29:44;102504.97;;;7.41;100.00
44872;BME280;30602;51.060;17.226;2023-04-09T18:33:24;102505.63;;;7.46;100.00
44872;BME280;30602;51.060;17.226;2023-04-09T18:37:17;102511.34;;;7.44;100.00
44872;BME280;30602;51.060;17.226;2023-04-09T18:41:45;102509.89;;;7.43;100.00
44872;BME280;30602;51.060;17.226;2023-04-09T18:45:36;102517.36;;;7.41;100.00
44872;BME280;30602;51.060;17.226;2023-04-09T18:48:59;102519.59;;;7.38;100.00
44872;BME280;30602;51.060;17.226;2023-04-09T18:53:11;102524.52;;;7.38;100.00
44872;BME280;30602;51.060;17.226;2023-04-09T18:57:02;102529.62;;;7.36;100.00
44872;BME280;30602;51.060;17.226;2023-04-09T19:01:41;102528.80;;;7.35;100.00
44872;BME280;30602;51.060;17.226;2023-04-09T19:05:32;102531.99;;;7.34;100.00
44872;BME280;30602;51.060;17.226;2023-04-09T19:09:15;102529.39;;;7.31;100.00
44872;BME280;30602;51.060;17.226;2023-04-09T19:13:56;102529.15;;;7.28;100.00
44872;BME280;30602;51.060;17.226;2023-04-09T19:17:38;102532.19;;;7.33;100.00
44872;BME280;30602;51.060;17.226;2023-04-09T19:22:11;102532.59;;;7.32;100.00
44872;BME280;30602;51.060;17.226;2023-04-09T19:26:00;102531.59;;;7.30;100.00
44872;BME280;30602;51.060;17.226;2023-04-09T19:34:16;102535.79;;;7.27;100.00
44872;BME280;30602;51.060;17.226;2023-04-09T19:38:07;102541.89;;;7.24;100.00
44872;BME280;30602;51.060;17.226;2023-04-09T19:42:22;102547.07;;;7.21;100.00
44872;BME280;30602;51.060;17.226;2023-04-09T19:46:11;102515.20;;;6.97;100.00
44872;BME280;30602;51.060;17.226;2023-04-09T19:50:52;102542.56;;;7.10;100.00
44872;BME280;30602;51.060;17.226;2023-04-09T19:54:26;102530.12;;;7.03;100.00
44872;BME280;30602;51.060;17.226;2023-04-09T19:58:53;102551.02;;;7.14;100.00
44872;BME280;30602;51.060;17.226;2023-04-09T20:02:35;102555.41;;;7.17;100.00
44872;BME280;30602;51.060;17.226;2023-04-09T20:06:42;102553.50;;;7.21;100.00
44872;BME280;30602;51.060;17.226;2023-04-09T20:10:47;102552.02;;;7.17;100.00
44872;BME280;30602;51.060;17.226;2023-04-09T20:14:27;102554.60;;;7.16;100.00
44872;BME280;30602;51.060;17.226;2023-04-09T20:17:54;102557.38;;;7.13;100.00
44872;BME280;30602;51.060;17.226;2023-04-09T20:22:12;102554.03;;;7.12;100.00
44872;BME280;30602;51.060;17.226;2023-04-09T20:26:05;102551.88;;;7.10;100.00
44872;BME280;30602;51.060;17.226;2023-04-09T20:29:36;102549.01;;;7.07;100.00
44872;BME280;30602;51.060;17.226;2023-04-09T20:34:08;102548.48;;;7.02;100.00
44872;BME280;30602;51.060;17.226;2023-04-09T20:37:52;102550.74;;;6.97;100.00
44872;BME280;30602;51.060;17.226;2023-04-09T20:42:40;102554.48;;;6.99;100.00
44872;BME280;30602;51.060;17.226;2023-04-09T20:46:40;102550.28;;;7.02;100.00
44872;BME280;30602;51.060;17.226;2023-04-09T20:50:38;102541.34;;;7.01;100.00
44872;BME280;30602;51.060;17.226;2023-04-09T20:54:10;102545.90;;;7.03;100.00
44872;BME280;30602;51.060;17.226;2023-04-09T20:57:38;102543.29;;;6.89;100.00
44872;BME280;30602;51.060;17.226;2023-04-09T21:01:28;102550.35;;;6.88;100.00
44872;BME280;30602;51.060;17.226;2023-04-09T21:09:41;102536.78;;;6.74;100.00
44872;BME280;30602;51.060;17.226;2023-04-09T21:13:33;102552.21;;;6.80;100.00
44872;BME280;30602;51.060;17.226;2023-04-09T21:17:26;102551.32;;;6.77;100.00
44872;BME280;30602;51.060;17.226;2023-04-09T21:21:15;102555.10;;;6.74;100.00
44872;BME280;30602;51.060;17.226;2023-04-09T21:29:09;102542.92;;;6.62;100.00
44872;BME280;30602;51.060;17.226;2023-04-09T21:32:38;102551.71;;;6.63;100.00
44872;BME280;30602;51.060;17.226;2023-04-09T21:36:31;102554.75;;;6.75;100.00